^^
Saratoga-Weather Station Historical Data
Daily Summary for December 31, 2020 Units:  English    Metric   Both
Daily Weekly Monthly Yearly Custom
  High: Low: Average:
Temperature: 39.7 °F 34.3 °F 36.9 °F
Dew Point: 38.1 °F 33.1 °F 35.2 °F
Humidity: 96% 91% 94%
Wind Speed: 6.9mph 0mph 1.8mph
Wind Gust: 9mph - -
Wind- - SE
Pressure: 29.7 in 29.5 in -
Precipitation: 0.2 in    
Historical Graphs
 
 
Tabular Data for December 31, 2020
Time Temperature Dew Point Pressure Wind Wind Speed Wind Gust Humidity Rainfall Rate (Hourly) solar
00:03 37.2 °F 35.4 °F 29.7 in Calm     93% 0 in 0 W/m2
00:08 37.2 °F 35.4 °F 29.7 in WNW 2 mph 3 mph 93% 0 in 0 W/m2
00:13 37.2 °F 35.4 °F 29.7 in Calm   3 mph 93% 0 in 0 W/m2
00:18 37.2 °F 35.4 °F 29.7 in NW 4 mph 4 mph 93% 0 in 0 W/m2
00:23 37.2 °F 35.4 °F 29.7 in NW 0.9 mph 2 mph 93% 0 in 0 W/m2
00:28 37.2 °F 35.1 °F 29.7 in NNW 2 mph 3 mph 92% 0 in 0 W/m2
00:33 37.2 °F 35.1 °F 29.7 in NNE 0.9 mph 3 mph 92% 0 in 0 W/m2
00:38 37.2 °F 35.1 °F 29.7 in Calm   4 mph 92% 0 in 0 W/m2
00:43 37.2 °F 35.1 °F 29.7 in NE 0.9 mph 4 mph 92% 0 in 0 W/m2
00:48 37.2 °F 35.1 °F 29.7 in ENE 2 mph 3 mph 92% 0 in 0 W/m2
00:53 37.2 °F 35.1 °F 29.7 in NNW 2.9 mph 3 mph 92% 0 in 0 W/m2
00:58 37.2 °F 35.1 °F 29.7 in WSW 0.9 mph 5 mph 92% 0 in 0 W/m2
01:03 37.2 °F 35.1 °F 29.7 in NNW 2 mph 4 mph 92% 0 in 0 W/m2
01:08 37.2 °F 35.1 °F 29.7 in Calm   2 mph 92% 0 in 0 W/m2
01:13 37.2 °F 35.1 °F 29.7 in WNW 2 mph 5 mph 92% 0 in 0 W/m2
01:18 37.2 °F 35.1 °F 29.7 in ENE 0.9 mph 6 mph 92% 0 in 0 W/m2
01:23 37.2 °F 34.9 °F 29.7 in NNW 0.9 mph 2 mph 91% 0 in 0 W/m2
01:28 37.2 °F 34.9 °F 29.7 in NE 2 mph 6 mph 91% 0 in 0 W/m2
01:33 37.2 °F 34.9 °F 29.7 in ENE 0.9 mph 2 mph 91% 0 in 0 W/m2
01:39 37.2 °F 35.1 °F 29.7 in East 0.9 mph 4 mph 92% 0 in 0 W/m2
01:44 37 °F 34.9 °F 29.7 in North 0.9 mph 3 mph 92% 0 in 0 W/m2
01:49 37 °F 34.9 °F 29.7 in NE 2 mph 5 mph 92% 0 in 0 W/m2
01:54 36.9 °F 34.7 °F 29.7 in ENE 2 mph 4 mph 92% 0.01 in 0 W/m2
01:59 36.7 °F 34.5 °F 29.7 in NNE 2 mph 5 mph 92% 0.02 in 0 W/m2
02:04 36.7 °F 34.5 °F 29.7 in Calm   2 mph 92% 0.02 in 0 W/m2
02:09 36.5 °F 34.7 °F 29.7 in ENE 2 mph 4 mph 93% 0.02 in 0 W/m2
02:14 36.5 °F 34.7 °F 29.7 in Calm   2 mph 93% 0.02 in 0 W/m2
02:19 36.3 °F 34.5 °F 29.7 in Calm   1 mph 93% 0.02 in 0 W/m2
02:24 36.5 °F 34.7 °F 29.7 in NE 0.9 mph 3 mph 93% 0.02 in 0 W/m2
02:29 36.5 °F 34.7 °F 29.7 in Calm   2 mph 93% 0.02 in 0 W/m2
02:34 36.5 °F 34.7 °F 29.7 in NNE 2 mph 3 mph 93% 0.02 in 0 W/m2
02:39 36.7 °F 34.9 °F 29.7 in NE 0.9 mph 3 mph 93% 0.02 in 0 W/m2
02:44 36.7 °F 34.9 °F 29.7 in NNE 0.9 mph 2 mph 93% 0.02 in 0 W/m2
02:49 36.7 °F 34.9 °F 29.7 in East 2 mph 3 mph 93% 0.02 in 0 W/m2
02:54 36.7 °F 34.9 °F 29.7 in NE 2 mph 4 mph 93% 0.01 in 0 W/m2
02:59 36.7 °F 34.9 °F 29.7 in ENE 2 mph 4 mph 93% 0 in 0 W/m2
03:04 36.7 °F 34.9 °F 29.7 in NE 2.9 mph 3 mph 93% 0 in 0 W/m2
03:09 36.7 °F 34.9 °F 29.7 in NE 0.9 mph 3 mph 93% 0 in 0 W/m2
03:14 36.9 °F 35.1 °F 29.7 in ENE 0.9 mph 4 mph 93% 0 in 0 W/m2
03:19 36.9 °F 35.1 °F 29.7 in ENE 0.9 mph 4 mph 93% 0 in 0 W/m2
03:24 36.9 °F 35.1 °F 29.7 in ESE 0.9 mph 4 mph 93% 0 in 0 W/m2
03:29 36.7 °F 34.9 °F 29.7 in SE 2 mph 2 mph 93% 0 in 0 W/m2
03:34 36.7 °F 34.9 °F 29.7 in ENE 0.9 mph 4 mph 93% 0 in 0 W/m2
03:39 36.7 °F 34.9 °F 29.7 in Calm   3 mph 93% 0 in 0 W/m2
03:44 36.7 °F 34.9 °F 29.7 in Calm   4 mph 93% 0 in 0 W/m2
03:49 36.7 °F 34.9 °F 29.7 in Calm   3 mph 93% 0 in 0 W/m2
03:54 36.7 °F 34.9 °F 29.7 in NE 0.9 mph 1 mph 93% 0 in 0 W/m2
03:59 36.7 °F 34.9 °F 29.7 in Calm   2 mph 93% 0 in 0 W/m2
04:04 36.7 °F 34.9 °F 29.7 in Calm   2 mph 93% 0 in 0 W/m2
04:09 36.7 °F 34.9 °F 29.7 in East 0.9 mph 3 mph 93% 0.01 in 0 W/m2
04:14 36.5 °F 34.7 °F 29.6 in East 0.9 mph 6 mph 93% 0.01 in 0 W/m2
04:19 36.3 °F 34.5 °F 29.6 in ENE 4 mph 4 mph 93% 0.02 in 0 W/m2
04:24 36.3 °F 34.5 °F 29.6 in East 2 mph 6 mph 93% 0.02 in 0 W/m2
04:29 36.3 °F 34.5 °F 29.6 in East 0.9 mph 3 mph 93% 0.02 in 0 W/m2
04:34 36.3 °F 34.5 °F 29.6 in Calm   3 mph 93% 0.02 in 0 W/m2
04:39 36.3 °F 34.5 °F 29.6 in East 2 mph 3 mph 93% 0.02 in 0 W/m2
04:44 36.3 °F 34.5 °F 29.6 in Calm   1 mph 93% 0.02 in 0 W/m2
04:49 36.3 °F 34.5 °F 29.6 in ENE 2.9 mph 6 mph 93% 0.02 in 0 W/m2
04:54 36.3 °F 34.5 °F 29.6 in NE 0.9 mph 3 mph 93% 0.02 in 0 W/m2
04:59 36.3 °F 34.5 °F 29.6 in ENE 2 mph 5 mph 93% 0.02 in 0 W/m2
05:04 36.3 °F 34.2 °F 29.6 in East 4 mph 7 mph 92% 0.02 in 0 W/m2
05:09 36.1 °F 34 °F 29.6 in SE 2 mph 4 mph 92% 0.02 in 0 W/m2
05:14 36.1 °F 34.3 °F 29.6 in East 2 mph 3 mph 93% 0.02 in 0 W/m2
05:19 36 °F 34.2 °F 29.6 in ENE 2 mph 3 mph 93% 0.02 in 0 W/m2
05:24 36 °F 34.2 °F 29.6 in East 2 mph 4 mph 93% 0.02 in 0 W/m2
05:29 35.8 °F 34 °F 29.6 in ENE 2 mph 7 mph 93% 0.02 in 0 W/m2
05:34 35.6 °F 33.8 °F 29.6 in Calm   2 mph 93% 0.02 in 0 W/m2
05:39 35.6 °F 34 °F 29.6 in ESE 2.9 mph 3 mph 94% 0.02 in 0 W/m2
05:44 35.4 °F 33.8 °F 29.6 in ESE 0.9 mph 3 mph 94% 0.02 in 0 W/m2
05:49 35.4 °F 33.8 °F 29.6 in East 2 mph 4 mph 94% 0.02 in 0 W/m2
05:54 35.4 °F 33.8 °F 29.6 in ENE 2.9 mph 4 mph 94% 0.02 in 0 W/m2
05:59 35.2 °F 33.6 °F 29.6 in ENE 0.9 mph 6 mph 94% 0.02 in 0 W/m2
06:04 35.2 °F 33.6 °F 29.6 in SE 2.9 mph 3 mph 94% 0.02 in 0 W/m2
06:09 35.2 °F 33.6 °F 29.6 in NE 2 mph 5 mph 94% 0.02 in 0 W/m2
06:14 35.2 °F 34 °F 29.6 in NE 2.9 mph 3 mph 95% 0.02 in 0 W/m2
06:19 35.4 °F 34.2 °F 29.6 in NE 2 mph 2 mph 95% 0.02 in 0 W/m2
06:24 35.4 °F 34.2 °F 29.6 in North 2 mph 4 mph 95% 0.02 in 0 W/m2
06:29 35.4 °F 34.2 °F 29.6 in NE 2 mph 3 mph 95% 0.01 in 0 W/m2
06:34 35.4 °F 34.2 °F 29.6 in ENE 2.9 mph 3 mph 95% 0.01 in 0 W/m2
06:39 35.4 °F 34.2 °F 29.6 in NE 2 mph 7 mph 95% 0.01 in 0 W/m2
06:44 35.2 °F 34 °F 29.6 in Calm   8 mph 95% 0.02 in 0 W/m2
06:49 35.1 °F 33.4 °F 29.6 in ESE 0.9 mph 3 mph 94% 0.02 in 0 W/m2
06:54 35.1 °F 33.4 °F 29.6 in East 2 mph 6 mph 94% 0.03 in 0 W/m2
06:59 35.1 °F 33.4 °F 29.6 in NNE 4 mph 5 mph 94% 0.03 in 0 W/m2
07:04 35.1 °F 33.8 °F 29.6 in North 0.9 mph 6 mph 95% 0.03 in 0 W/m2
07:09 35.1 °F 33.8 °F 29.6 in NE 2.9 mph 7 mph 95% 0.02 in 0 W/m2
07:14 35.2 °F 34 °F 29.6 in ENE 2 mph 6 mph 95% 0.03 in 0 W/m2
07:19 35.2 °F 33.6 °F 29.6 in NNE 4 mph 4 mph 94% 0.03 in 0 W/m2
07:24 35.2 °F 33.6 °F 29.6 in NE 4 mph 6 mph 94% 0.03 in 0 W/m2
07:29 35.2 °F 33.6 °F 29.6 in ENE 2.9 mph 4 mph 94% 0.03 in 0 W/m2
07:34 35.2 °F 33.6 °F 29.6 in NE 4 mph 6 mph 94% 0.03 in 0 W/m2
07:39 35.2 °F 34 °F 29.6 in East 2 mph 6 mph 95% 0.03 in 0 W/m2
07:44 35.2 °F 34 °F 29.6 in East 2.9 mph 6 mph 95% 0.03 in 0 W/m2
07:49 35.2 °F 34 °F 29.6 in ENE 2.9 mph 8 mph 95% 0.02 in 0 W/m2
07:54 35.2 °F 34 °F 29.6 in NE 2 mph 4 mph 95% 0.02 in 0 W/m2
07:59 35.2 °F 34 °F 29.6 in ESE 2.9 mph 8 mph 95% 0.02 in 0 W/m2
08:04 35.2 °F 34 °F 29.6 in East 2.9 mph 5 mph 95% 0.02 in 0 W/m2
08:09 35.2 °F 34 °F 29.6 in ESE 0.9 mph 6 mph 95% 0.02 in 0 W/m2
08:14 35.2 °F 34 °F 29.6 in ENE 2 mph 5 mph 95% 0.02 in 0 W/m2
08:19 35.1 °F 33.8 °F 29.6 in East 2 mph 8 mph 95% 0.02 in 0 W/m2
08:24 35.1 °F 33.8 °F 29.6 in ENE 0.9 mph 6 mph 95% 0.02 in 0 W/m2
08:29 34.9 °F 33.6 °F 29.6 in East 0.9 mph 7 mph 95% 0.03 in 0 W/m2
08:34 34.7 °F 33.4 °F 29.6 in East 0.9 mph 2 mph 95% 0.04 in 0 W/m2
08:39 34.7 °F 33.4 °F 29.6 in NE 4 mph 4 mph 95% 0.04 in 0 W/m2
08:44 34.5 °F 33.3 °F 29.6 in NE 2 mph 3 mph 95% 0.03 in 0 W/m2
08:49 34.5 °F 33.3 °F 29.6 in NE 2 mph 3 mph 95% 0.04 in 0 W/m2
08:54 34.5 °F 33.3 °F 29.6 in NE 0.9 mph 4 mph 95% 0.04 in 0 W/m2
08:59 34.3 °F 33.1 °F 29.6 in ENE 2.9 mph 3 mph 95% 0.05 in 0 W/m2
09:04 34.3 °F 33.1 °F 29.6 in NE 2 mph 4 mph 95% 0.05 in 0 W/m2
09:09 34.3 °F 33.1 °F 29.6 in North 2 mph 3 mph 95% 0.05 in 0 W/m2
09:14 34.5 °F 33.3 °F 29.6 in ENE 2.9 mph 4 mph 95% 0.05 in 0 W/m2
09:19 34.5 °F 33.3 °F 29.6 in East 2.9 mph 4 mph 95% 0.04 in 0 W/m2
09:24 34.7 °F 33.4 °F 29.6 in ENE 0.9 mph 6 mph 95% 0.04 in 0 W/m2
09:29 34.5 °F 33.3 °F 29.6 in East 2 mph 2 mph 95% 0.04 in 0 W/m2
09:34 34.5 °F 33.3 °F 29.6 in NE 0.9 mph 6 mph 95% 0.03 in 5 W/m2
09:39 34.3 °F 33.1 °F 29.6 in ENE 0.9 mph 4 mph 95% 0.04 in 9 W/m2
09:44 34.3 °F 33.1 °F 29.6 in ENE 2.9 mph 4 mph 95% 0.04 in 11 W/m2
09:49 34.3 °F 33.1 °F 29.6 in ENE 0.9 mph 3 mph 95% 0.04 in 18 W/m2
09:54 34.3 °F 33.1 °F 29.6 in Calm   3 mph 95% 0.05 in 19 W/m2
09:59 34.3 °F 33.1 °F 29.6 in ESE 0.9 mph 4 mph 95% 0.04 in 26 W/m2
10:04 34.3 °F 33.1 °F 29.6 in NE 2.9 mph 5 mph 95% 0.05 in 30 W/m2
10:09 34.5 °F 33.3 °F 29.6 in NE 2 mph 3 mph 95% 0.04 in 21 W/m2
10:14 34.5 °F 33.3 °F 29.6 in NNE 0.9 mph 2 mph 95% 0.04 in 25 W/m2
10:19 34.7 °F 33.6 °F 29.6 in North 0.9 mph 2 mph 96% 0.04 in 26 W/m2
10:24 34.9 °F 33.8 °F 29.6 in NE 2.9 mph 3 mph 96% 0.04 in 25 W/m2
10:29 35.1 °F 34 °F 29.6 in NE 4 mph 4 mph 96% 0.03 in 25 W/m2
10:34 35.2 °F 34.2 °F 29.6 in NE 0.9 mph 4 mph 96% 0.03 in 30 W/m2
10:39 35.4 °F 34.3 °F 29.6 in NNW 2 mph 3 mph 96% 0.02 in 33 W/m2
10:44 35.8 °F 34.7 °F 29.6 in NNE 2 mph 3 mph 96% 0.02 in 28 W/m2
10:49 36 °F 34.9 °F 29.6 in NW 2 mph 3 mph 96% 0.02 in 21 W/m2
10:54 36.1 °F 35.1 °F 29.6 in ENE 2 mph 3 mph 96% 0.01 in 25 W/m2
10:59 36.1 °F 34.9 °F 29.6 in NNE 0.9 mph 3 mph 95% 0.01 in 42 W/m2
11:04 36.3 °F 35.1 °F 29.6 in North 0.9 mph 3 mph 95% 0 in 33 W/m2
11:09 36.5 °F 35.2 °F 29.6 in NE 4 mph 4 mph 95% 0 in 30 W/m2
11:14 36.7 °F 35.4 °F 29.6 in NE 2 mph 6 mph 95% 0 in 58 W/m2
11:19 36.9 °F 35.6 °F 29.6 in NNE 0.9 mph 4 mph 95% 0 in 58 W/m2
11:24 37 °F 35.8 °F 29.6 in NE 2 mph 6 mph 95% 0 in 58 W/m2
11:29 37 °F 35.8 °F 29.6 in North 0.9 mph 3 mph 95% 0 in 54 W/m2
11:35 37.2 °F 36 °F 29.6 in North 2.9 mph 3 mph 95% 0 in 51 W/m2
11:40 37.4 °F 36.1 °F 29.6 in NNW 2 mph 2 mph 95% 0 in 46 W/m2
11:45 37.6 °F 36.3 °F 29.6 in NW 0.9 mph 4 mph 95% 0 in 35 W/m2
11:50 37.6 °F 36 °F 29.6 in ENE 0.9 mph 3 mph 94% 0 in 30 W/m2
11:55 37.6 °F 36 °F 29.6 in ENE 0.9 mph 4 mph 94% 0 in 28 W/m2
12:00 37.6 °F 36 °F 29.6 in North 2.9 mph 4 mph 94% 0 in 40 W/m2
12:05 37.6 °F 36 °F 29.6 in NNE 2 mph 2 mph 94% 0 in 42 W/m2
12:10 37.8 °F 36.5 °F 29.6 in NE 2 mph 2 mph 95% 0 in 28 W/m2
12:15 37.8 °F 36.5 °F 29.6 in ENE 2 mph 2 mph 95% 0 in 44 W/m2
12:20 37.8 °F 36.5 °F 29.6 in North 2 mph 3 mph 95% 0 in 63 W/m2
12:25 37.9 °F 36.7 °F 29.6 in Calm   4 mph 95% 0 in 54 W/m2
12:30 37.9 °F 36.7 °F 29.6 in NE 2 mph 4 mph 95% 0 in 63 W/m2
12:35 38.1 °F 36.9 °F 29.6 in NNE 2 mph 2 mph 95% 0 in 69 W/m2
12:40 38.1 °F 36.9 °F 29.6 in NE 4.9 mph 5 mph 95% 0 in 90 W/m2
12:45 38.5 °F 37.2 °F 29.6 in NNE 0.9 mph 3 mph 95% 0 in 56 W/m2
12:50 38.5 °F 37.2 °F 29.6 in ENE 0.9 mph 3 mph 95% 0 in 46 W/m2
12:55 38.5 °F 37.2 °F 29.6 in NNW 2 mph 3 mph 95% 0 in 33 W/m2
13:00 38.7 °F 37 °F 29.6 in NE 0.9 mph 2 mph 94% 0 in 46 W/m2
13:05 38.7 °F 37 °F 29.6 in ENE 2 mph 3 mph 94% 0 in 49 W/m2
13:10 38.7 °F 37 °F 29.6 in NNW 2 mph 4 mph 94% 0 in 49 W/m2
13:15 38.8 °F 37.2 °F 29.6 in NNE 0.9 mph 2 mph 94% 0 in 69 W/m2
13:20 38.8 °F 37.2 °F 29.6 in North 2 mph 2 mph 94% 0 in 33 W/m2
13:25 39 °F 37.4 °F 29.6 in North 0.9 mph 4 mph 94% 0 in 93 W/m2
13:30 39 °F 37.4 °F 29.6 in NNE 0.9 mph 3 mph 94% 0 in 97 W/m2
13:35 39.2 °F 37.6 °F 29.6 in North 2.9 mph 4 mph 94% 0 in 53 W/m2
13:40 39.4 °F 37.8 °F 29.5 in NNW 0.9 mph 3 mph 94% 0 in 44 W/m2
13:45 39.4 °F 37.8 °F 29.5 in ENE 2 mph 5 mph 94% 0 in 25 W/m2
13:50 39.4 °F 37.8 °F 29.5 in NE 0.9 mph 2 mph 94% 0 in 21 W/m2
13:55 39.4 °F 37.6 °F 29.5 in ENE 4 mph 5 mph 93% 0 in 39 W/m2
14:00 39.4 °F 37.8 °F 29.5 in Calm   2 mph 94% 0 in 42 W/m2
14:05 39.6 °F 37.9 °F 29.5 in NE 2 mph 4 mph 94% 0 in 35 W/m2
14:10 39.6 °F 37.9 °F 29.5 in ENE 2 mph 2 mph 94% 0 in 40 W/m2
14:15 39.6 °F 37.9 °F 29.5 in NNE 2 mph 4 mph 94% 0 in 40 W/m2
14:20 39.7 °F 38.1 °F 29.5 in NW 0.9 mph 1 mph 94% 0 in 35 W/m2
14:25 39.7 °F 38.1 °F 29.5 in Calm   3 mph 94% 0 in 28 W/m2
14:30 39.7 °F 38.1 °F 29.5 in ENE 2 mph 2 mph 94% 0 in 23 W/m2
14:35 39.7 °F 37.9 °F 29.5 in East 2 mph 3 mph 93% 0 in 33 W/m2
14:40 39.7 °F 37.9 °F 29.5 in East 2 mph 6 mph 93% 0 in 26 W/m2
14:45 39.7 °F 37.9 °F 29.5 in SSE 2 mph 6 mph 93% 0 in 16 W/m2
14:50 39.6 °F 37.9 °F 29.5 in ENE 0.9 mph 3 mph 94% 0 in 12 W/m2
14:55 39.6 °F 37.9 °F 29.5 in East 2 mph 4 mph 94% 0 in 18 W/m2
15:00 39.4 °F 37.8 °F 29.5 in ESE 2.9 mph 4 mph 94% 0 in 19 W/m2
15:05 39.4 °F 37.8 °F 29.5 in ENE 2 mph 2 mph 94% 0 in 16 W/m2
15:10 39.2 °F 37.6 °F 29.5 in NE 0.9 mph 3 mph 94% 0 in 16 W/m2
15:15 39.2 °F 37.6 °F 29.5 in NNE 2 mph 4 mph 94% 0 in 12 W/m2
15:21 39.2 °F 37.6 °F 29.5 in ENE 4 mph 4 mph 94% 0 in 11 W/m2
15:26 39.2 °F 37.6 °F 29.5 in ENE 2 mph 3 mph 94% 0 in 11 W/m2
15:31 39.2 °F 37.6 °F 29.6 in Calm   6 mph 94% 0 in 7 W/m2
15:36 39.2 °F 37.6 °F 29.6 in ENE 2 mph 4 mph 94% 0 in 7 W/m2
15:41 39.2 °F 37.6 °F 29.6 in Calm   5 mph 94% 0 in 7 W/m2
15:46 39.2 °F 37.6 °F 29.6 in NE 0.9 mph 3 mph 94% 0 in 9 W/m2
15:51 39.2 °F 37.6 °F 29.6 in ENE 2 mph 3 mph 94% 0 in 9 W/m2
15:56 39.2 °F 37.6 °F 29.6 in NW 2 mph 4 mph 94% 0 in 9 W/m2
16:01 39.2 °F 37.6 °F 29.6 in NE 2 mph 3 mph 94% 0 in 9 W/m2
16:06 39.2 °F 37.6 °F 29.6 in North 2 mph 4 mph 94% 0 in 11 W/m2
16:11 39.2 °F 37.6 °F 29.6 in ENE 2.9 mph 3 mph 94% 0.01 in 9 W/m2
16:16 39 °F 37.2 °F 29.6 in North 2 mph 4 mph 93% 0.01 in 7 W/m2
16:21 39 °F 37.2 °F 29.6 in North 0.9 mph 2 mph 93% 0.01 in 5 W/m2
16:26 38.8 °F 37 °F 29.6 in Calm   4 mph 93% 0.01 in 7 W/m2
16:31 38.7 °F 36.9 °F 29.6 in North 4 mph 4 mph 93% 0.01 in 11 W/m2
16:36 38.7 °F 36.9 °F 29.6 in NE 0.9 mph 5 mph 93% 0.01 in 7 W/m2
16:41 38.3 °F 36.5 °F 29.6 in North 2 mph 6 mph 93% 0.01 in 5 W/m2
16:46 37.9 °F 36.1 °F 29.6 in NW 2 mph 5 mph 93% 0.01 in 0 W/m2
16:51 37.9 °F 36.1 °F 29.6 in North 2 mph 6 mph 93% 0.01 in 0 W/m2
16:56 37.8 °F 36 °F 29.6 in WNW 2.9 mph 4 mph 93% 0.01 in 0 W/m2
17:01 37.8 °F 36 °F 29.6 in NNE 2.9 mph 6 mph 93% 0.01 in 0 W/m2
17:06 37.6 °F 35.8 °F 29.6 in ENE 2.9 mph 5 mph 93% 0.01 in 0 W/m2
17:11 37.4 °F 35.6 °F 29.6 in NE 0.9 mph 3 mph 93% 0 in 0 W/m2
17:16 37.2 °F 35.4 °F 29.6 in ENE 2 mph 7 mph 93% 0 in 0 W/m2
17:21 37.2 °F 35.4 °F 29.6 in Calm   2 mph 93% 0 in 0 W/m2
17:26 37 °F 35.2 °F 29.6 in Calm   2 mph 93% 0 in 0 W/m2
17:31 37 °F 35.2 °F 29.6 in North 0.9 mph 5 mph 93% 0 in 0 W/m2
17:36 37 °F 35.2 °F 29.6 in WNW 2 mph 3 mph 93% 0 in 0 W/m2
17:41 37 °F 35.2 °F 29.6 in Calm   3 mph 93% 0 in 0 W/m2
17:46 36.9 °F 35.1 °F 29.6 in SSE 2 mph 2 mph 93% 0 in 0 W/m2
17:51 37 °F 35.2 °F 29.6 in NNW 2.9 mph 3 mph 93% 0 in 0 W/m2
17:56 36.9 °F 35.1 °F 29.6 in ENE 2 mph 2 mph 93% 0 in 0 W/m2
18:01 36.9 °F 35.1 °F 29.6 in NE 0.9 mph 4 mph 93% 0 in 0 W/m2
18:06 36.9 °F 35.1 °F 29.6 in NE 0.9 mph 2 mph 93% 0 in 0 W/m2
18:11 36.9 °F 35.1 °F 29.6 in Calm   3 mph 93% 0 in 0 W/m2
18:16 36.9 °F 35.2 °F 29.6 in Calm   1 mph 94% 0 in 0 W/m2
18:21 36.9 °F 35.2 °F 29.6 in Calm   1 mph 94% 0 in 0 W/m2
18:26 36.9 °F 35.2 °F 29.6 in NE 0.9 mph 3 mph 94% 0 in 0 W/m2
18:31 36.9 °F 35.2 °F 29.6 in ENE 4 mph 4 mph 94% 0 in 0 W/m2
18:36 36.9 °F 35.2 °F 29.6 in ENE 0.9 mph 2 mph 94% 0 in 0 W/m2
18:41 36.9 °F 35.2 °F 29.6 in Calm     94% 0 in 0 W/m2
18:46 36.9 °F 35.2 °F 29.6 in Calm     94% 0 in 0 W/m2
18:51 36.9 °F 35.2 °F 29.6 in NW 2 mph 3 mph 94% 0 in 0 W/m2
18:56 36.9 °F 35.2 °F 29.6 in NE 0.9 mph 2 mph 94% 0 in 0 W/m2
19:01 36.7 °F 35.1 °F 29.6 in Calm   1 mph 94% 0 in 0 W/m2
19:06 36.9 °F 35.2 °F 29.6 in NE 2 mph 2 mph 94% 0 in 0 W/m2
19:11 36.9 °F 35.2 °F 29.6 in ENE 2 mph 2 mph 94% 0 in 0 W/m2
19:16 36.9 °F 35.2 °F 29.6 in East 2 mph 3 mph 94% 0 in 0 W/m2
19:21 36.9 °F 35.6 °F 29.6 in Calm   2 mph 95% 0 in 0 W/m2
19:26 36.9 °F 35.6 °F 29.6 in East 0.9 mph 3 mph 95% 0 in 0 W/m2
19:31 36.7 °F 35.4 °F 29.6 in ESE 2.9 mph 4 mph 95% 0 in 0 W/m2
19:36 36.7 °F 35.4 °F 29.6 in Calm   1 mph 95% 0 in 0 W/m2
19:41 36.9 °F 35.6 °F 29.6 in West 6 mph 6 mph 95% 0 in 0 W/m2
19:46 36.9 °F 35.6 °F 29.6 in West 2 mph 6 mph 95% 0 in 0 W/m2
19:51 36.9 °F 35.6 °F 29.6 in West 0.9 mph 2 mph 95% 0 in 0 W/m2
19:56 36.9 °F 35.6 °F 29.6 in WSW 2 mph 6 mph 95% 0 in 0 W/m2
20:01 36.9 °F 35.6 °F 29.6 in West 0.9 mph 4 mph 95% 0 in 0 W/m2
20:06 36.9 °F 35.6 °F 29.6 in Calm   2 mph 95% 0 in 0 W/m2
20:11 36.9 °F 35.6 °F 29.6 in Calm   4 mph 95% 0 in 0 W/m2
20:16 37 °F 35.8 °F 29.6 in Calm   2 mph 95% 0 in 0 W/m2
20:21 37 °F 35.8 °F 29.6 in Calm   3 mph 95% 0 in 0 W/m2
20:26 37 °F 35.8 °F 29.6 in WNW 0.9 mph 2 mph 95% 0 in 0 W/m2
20:31 37 °F 36 °F 29.6 in West 4 mph 9 mph 96% 0 in 0 W/m2
20:36 37 °F 36 °F 29.6 in West 4 mph 4 mph 96% 0 in 0 W/m2
20:41 37 °F 36 °F 29.6 in West 2.9 mph 8 mph 96% 0 in 0 W/m2
20:46 37 °F 36 °F 29.6 in WNW 2.9 mph 6 mph 96% 0 in 0 W/m2
20:51 36.9 °F 35.6 °F 29.6 in WSW 4.9 mph 6 mph 95% 0 in 0 W/m2
20:56 36.9 °F 35.6 °F 29.6 in West 6 mph 6 mph 95% 0 in 0 W/m2
21:01 36.7 °F 35.4 °F 29.6 in NW 2.9 mph 7 mph 95% 0 in 0 W/m2
21:06 36.7 °F 35.4 °F 29.6 in WNW 6 mph 6 mph 95% 0 in 0 W/m2
21:11 36.7 °F 35.4 °F 29.6 in West 0.9 mph 4 mph 95% 0 in 0 W/m2
21:17 36.7 °F 35.4 °F 29.6 in WNW 0.9 mph 4 mph 95% 0 in 0 W/m2
21:22 36.7 °F 35.4 °F 29.6 in West 0.9 mph 4 mph 95% 0 in 0 W/m2
21:27 36.5 °F 35.2 °F 29.6 in West 2.9 mph 8 mph 95% 0 in 0 W/m2
21:32 36.5 °F 35.2 °F 29.6 in West 0.9 mph 6 mph 95% 0 in 0 W/m2
21:37 36.5 °F 35.2 °F 29.6 in WSW 4.9 mph 8 mph 95% 0 in 0 W/m2
21:42 36.5 °F 35.2 °F 29.6 in WNW 0.9 mph 4 mph 95% 0 in 0 W/m2
21:47 36.5 °F 35.2 °F 29.6 in WNW 2 mph 3 mph 95% 0 in 0 W/m2
21:52 36.3 °F 35.1 °F 29.6 in WNW 2 mph 8 mph 95% 0 in 0 W/m2
21:57 36.3 °F 35.1 °F 29.6 in WNW 2.9 mph 4 mph 95% 0 in 0 W/m2
22:02 36.3 °F 35.1 °F 29.6 in WSW 0.9 mph 8 mph 95% 0 in 0 W/m2
22:07 36.3 °F 35.1 °F 29.6 in West 0.9 mph 3 mph 95% 0 in 0 W/m2
22:12 36.1 °F 34.9 °F 29.6 in WSW 6 mph 6 mph 95% 0 in 0 W/m2
22:17 36.1 °F 34.9 °F 29.6 in West 2.9 mph 3 mph 95% 0 in 0 W/m2
22:22 36.1 °F 34.9 °F 29.6 in West 2 mph 4 mph 95% 0 in 0 W/m2
22:27 36.1 °F 34.9 °F 29.6 in WSW 2.9 mph 6 mph 95% 0 in 0 W/m2
22:32 36.1 °F 34.9 °F 29.6 in West 2 mph 4 mph 95% 0 in 0 W/m2
22:37 36.1 °F 34.9 °F 29.6 in WSW 0.9 mph 3 mph 95% 0 in 0 W/m2
22:42 36 °F 34.7 °F 29.6 in WNW 0.9 mph 6 mph 95% 0 in 0 W/m2
22:47 36 °F 34.7 °F 29.6 in WNW 0.9 mph 4 mph 95% 0 in 0 W/m2
22:52 36 °F 34.7 °F 29.6 in West 2 mph 6 mph 95% 0 in 0 W/m2
22:57 36 °F 34.7 °F 29.6 in West 2.9 mph 6 mph 95% 0 in 0 W/m2
23:02 36 °F 34.7 °F 29.6 in WSW 6.9 mph 9 mph 95% 0 in 0 W/m2
23:07 36 °F 34.7 °F 29.6 in WNW 4 mph 6 mph 95% 0 in 0 W/m2
23:12 36 °F 34.3 °F 29.6 in West 2.9 mph 9 mph 94% 0 in 0 W/m2
23:17 36 °F 34.3 °F 29.6 in West 2.9 mph 7 mph 94% 0 in 0 W/m2
23:22 36 °F 34.3 °F 29.6 in West 2.9 mph 7 mph 94% 0 in 0 W/m2
23:27 36 °F 34.3 °F 29.6 in West 4 mph 7 mph 94% 0 in 0 W/m2
23:32 36 °F 34.3 °F 29.6 in West 0.9 mph 7 mph 94% 0 in 0 W/m2
23:37 36 °F 34.3 °F 29.6 in WSW 2.9 mph 8 mph 94% 0 in 0 W/m2
23:42 36 °F 34.3 °F 29.6 in West 6 mph 6 mph 94% 0 in 0 W/m2
23:47 35.8 °F 34.2 °F 29.6 in WNW 2.9 mph 7 mph 94% 0 in 0 W/m2
23:52 35.8 °F 34.2 °F 29.7 in WNW 4 mph 6 mph 94% 0 in 0 W/m2
23:57 35.8 °F 34.2 °F 29.7 in WNW 2.9 mph 6 mph 94% 0 in 0 W/m2
Juneau County Weather
Compliments of Weather Underground - 2 mb